Time;durP1;ratioP1;P1;durP2;ratioP2;P2;SDS_P1;SDS_P2;PMS_P1;PMS_P2;Temp;Humidity;BMP_temperature;BMP_pressure;BME280_temperature;BME280_humidity;BME280_pressure;Samples;Min_cycle;Max_cycle;Signal;HPM_P1;HPM_P2
2023/09/09 00:02:25;;;;;;;8.48;6.60;;;19.60;99.90;;;;;;5030040;23;20226;-52
2023/09/09 00:04:54;;;;;;;7.40;6.72;;;19.60;99.90;;;;;;4991828;28;20235;-53
2023/09/09 00:07:22;;;;;;;11.57;7.90;;;19.60;99.90;;;;;;5005476;28;20219;-53
2023/09/09 00:09:50;;;;;;;9.85;6.72;;;19.60;99.90;;;;;;5013495;28;20230;-52
2023/09/09 00:12:18;;;;;;;8.50;6.63;;;19.50;99.90;;;;;;5014220;28;20260;-52
2023/09/09 00:14:47;;;;;;;10.35;6.47;;;19.50;99.90;;;;;;5013711;28;20202;-52
2023/09/09 00:17:15;;;;;;;7.70;6.88;;;19.40;99.90;;;;;;5013677;28;20227;-52
2023/09/09 00:19:43;;;;;;;7.80;7.03;;;19.40;99.90;;;;;;5013849;28;20256;-52
2023/09/09 00:22:11;;;;;;;11.45;6.80;;;19.40;99.90;;;;;;5013882;28;20202;-52
2023/09/09 00:24:39;;;;;;;7.80;7.05;;;19.30;99.90;;;;;;5013350;28;20261;-52
2023/09/09 00:27:07;;;;;;;9.38;7.18;;;19.30;99.90;;;;;;5013331;28;20222;-52
2023/09/09 00:29:35;;;;;;;7.80;7.00;;;19.30;99.90;;;;;;5013574;28;20267;-53
2023/09/09 00:32:05;;;;;;;7.10;6.40;;;19.20;99.90;;;;;;5013478;28;20202;-52
2023/09/09 00:34:34;;;;;;;8.02;6.38;;;19.20;99.90;;;;;;5013341;28;20289;-52
2023/09/09 00:37:03;;;;;;;10.50;7.03;;;19.20;99.90;;;;;;5013065;28;20259;-54
2023/09/09 00:39:31;;;;;;;11.18;7.45;;;19.10;99.90;;;;;;5013315;28;20285;-52
2023/09/09 00:41:59;;;;;;;8.23;7.05;;;19.10;99.90;;;;;;5012961;28;20727;-52
2023/09/09 00:44:27;;;;;;;10.15;6.75;;;19.10;99.90;;;;;;5013058;28;20682;-54
2023/09/09 00:46:55;;;;;;;7.13;6.43;;;19.10;99.90;;;;;;5012866;28;20262;-52
2023/09/09 00:49:25;;;;;;;8.48;6.75;;;19.00;99.90;;;;;;5012928;28;20269;-52
2023/09/09 00:51:53;;;;;;;9.15;7.22;;;19.00;99.90;;;;;;5013441;28;20210;-54
2023/09/09 00:54:21;;;;;;;9.70;6.97;;;19.00;99.90;;;;;;5013141;28;20207;-52
2023/09/09 00:56:50;;;;;;;8.70;7.00;;;18.90;99.90;;;;;;5012864;28;20231;-55
2023/09/09 00:59:18;;;;;;;12.80;6.88;;;18.80;99.90;;;;;;5012948;28;20652;-52
2023/09/09 01:01:46;;;;;;;10.98;6.68;;;18.80;99.90;;;;;;5013099;28;20297;-52
2023/09/09 01:04:14;;;;;;;7.68;7.00;;;18.80;99.90;;;;;;5004879;28;20218;-52
2023/09/09 01:06:43;;;;;;;9.45;7.28;;;18.70;99.90;;;;;;5012876;28;20309;-52
2023/09/09 01:09:11;;;;;;;10.65;7.07;;;18.70;99.90;;;;;;5010968;28;20273;-54
2023/09/09 01:11:39;;;;;;;9.30;7.32;;;18.70;99.90;;;;;;5012924;28;20242;-53
2023/09/09 01:14:07;;;;;;;8.00;7.18;;;18.70;99.90;;;;;;5012545;28;20249;-54
2023/09/09 01:16:35;;;;;;;13.68;7.50;;;18.70;99.90;;;;;;5012355;28;20273;-55
2023/09/09 01:19:03;;;;;;;7.65;7.03;;;18.70;99.90;;;;;;5012738;28;20203;-57
2023/09/09 01:21:31;;;;;;;7.82;7.13;;;18.70;99.90;;;;;;5012835;28;20199;-52
2023/09/09 01:24:00;;;;;;;6.75;6.13;;;18.70;99.90;;;;;;5012533;28;20215;-53
2023/09/09 01:26:28;;;;;;;11.55;7.22;;;18.60;99.90;;;;;;5012416;28;20234;-52
2023/09/09 01:28:56;;;;;;;11.55;6.70;;;18.60;99.90;;;;;;5012301;28;20207;-57
2023/09/09 01:31:24;;;;;;;10.38;6.82;;;18.60;99.90;;;;;;5012515;28;20234;-53
2023/09/09 01:33:56;;;;;;;8.38;6.85;;;18.50;99.90;;;;;;5006044;28;20215;-53
2023/09/09 01:36:24;;;;;;;7.97;6.85;;;18.50;99.90;;;;;;5011993;28;20223;-52
2023/09/09 01:38:52;;;;;;;8.80;7.03;;;18.50;99.90;;;;;;5012023;28;20294;-52
2023/09/09 01:41:21;;;;;;;9.63;6.15;;;18.40;99.90;;;;;;5012355;28;20202;-55
2023/09/09 01:43:49;;;;;;;7.55;6.72;;;18.40;99.90;;;;;;5012016;28;20269;-56
2023/09/09 01:46:17;;;;;;;8.55;6.95;;;18.40;99.90;;;;;;5012608;28;20309;-52
2023/09/09 01:48:45;;;;;;;8.43;7.25;;;18.40;99.90;;;;;;5012253;28;20214;-55
2023/09/09 01:51:12;;;;;;;8.85;6.65;;;18.30;99.90;;;;;;5011943;28;20313;-54
2023/09/09 01:53:40;;;;;;;13.00;7.18;;;18.30;99.90;;;;;;5011373;28;20207;-55
2023/09/09 01:56:08;;;;;;;10.25;7.30;;;18.30;99.90;;;;;;5011631;28;20333;-55
2023/09/09 01:58:37;;;;;;;8.52;7.03;;;18.30;99.90;;;;;;5012282;28;20297;-57
2023/09/09 02:01:05;;;;;;;8.27;6.85;;;18.30;99.90;;;;;;5011925;28;20285;-52
2023/09/09 02:03:33;;;;;;;10.57;6.63;;;18.30;99.90;;;;;;5012015;28;20242;-52
2023/09/09 02:06:01;;;;;;;8.10;6.80;;;18.30;99.90;;;;;;5014179;28;20717;-52
2023/09/09 02:08:29;;;;;;;9.10;6.70;;;18.30;99.90;;;;;;5011948;28;20203;-52
2023/09/09 02:10:57;;;;;;;8.40;7.60;;;18.20;99.90;;;;;;5011786;28;20262;-53
2023/09/09 02:13:25;;;;;;;7.60;6.80;;;18.20;99.90;;;;;;5011926;28;20686;-53
2023/09/09 02:16:02;;;;;;;9.50;6.38;;;18.10;99.90;;;;;;5011290;28;20206;-54
2023/09/09 02:18:30;;;;;;;10.70;7.15;;;18.10;99.90;;;;;;5012071;28;20198;-56
2023/09/09 02:20:58;;;;;;;9.13;6.15;;;18.10;99.90;;;;;;5011661;28;20230;-52
2023/09/09 02:23:27;;;;;;;10.02;7.47;;;18.10;99.90;;;;;;5011819;28;20239;-52
2023/09/09 02:25:55;;;;;;;8.18;6.85;;;18.00;99.90;;;;;;5011333;28;20207;-54
2023/09/09 02:28:24;;;;;;;8.75;6.90;;;18.00;99.90;;;;;;5011891;28;20306;-53
2023/09/09 02:30:54;;;;;;;9.20;7.00;;;18.00;99.90;;;;;;5011373;28;20254;-55
2023/09/09 02:33:22;;;;;;;6.70;5.97;;;17.90;99.90;;;;;;5012054;28;20207;-52
2023/09/09 02:35:50;;;;;;;7.90;6.90;;;17.90;99.90;;;;;;5011390;28;20445;-52
2023/09/09 02:38:18;;;;;;;7.25;6.57;;;17.80;99.90;;;;;;5011830;28;20588;-52
2023/09/09 02:40:46;;;;;;;10.00;6.90;;;17.80;99.90;;;;;;5011662;28;20211;-52
2023/09/09 02:43:14;;;;;;;8.98;7.15;;;17.80;99.90;;;;;;5011540;28;20202;-52
2023/09/09 02:45:42;;;;;;;9.80;7.20;;;17.70;99.90;;;;;;5011239;28;20302;-52
2023/09/09 02:48:11;;;;;;;7.93;7.22;;;17.70;99.90;;;;;;5011900;28;20218;-52
2023/09/09 02:50:39;;;;;;;7.70;6.70;;;17.70;99.90;;;;;;5011113;28;20269;-54
2023/09/09 02:53:07;;;;;;;8.00;6.55;;;17.70;99.90;;;;;;5011653;28;20294;-55
2023/09/09 02:55:35;;;;;;;12.23;7.57;;;17.70;99.90;;;;;;5011000;28;20257;-57
2023/09/09 02:58:03;;;;;;;7.75;6.85;;;17.70;99.90;;;;;;5011477;28;20296;-52
2023/09/09 03:00:31;;;;;;;11.38;7.28;;;17.70;99.90;;;;;;5011280;28;20676;-57
2023/09/09 03:02:59;;;;;;;8.48;7.00;;;17.60;99.90;;;;;;5011433;28;20306;-58
2023/09/09 03:05:28;;;;;;;9.75;7.22;;;17.60;99.90;;;;;;5012812;28;20211;-53
2023/09/09 03:07:58;;;;;;;7.63;6.78;;;17.60;99.90;;;;;;5014994;28;20261;-53
2023/09/09 03:10:26;;;;;;;7.40;6.55;;;17.60;99.90;;;;;;5014834;28;20218;-54
2023/09/09 03:12:56;;;;;;;9.27;6.95;;;17.50;99.90;;;;;;5015440;28;20215;-59
2023/09/09 03:15:24;;;;;;;11.15;7.03;;;17.50;99.90;;;;;;5013070;28;20581;-54
2023/09/09 03:17:51;;;;;;;7.90;6.68;;;17.50;99.90;;;;;;5011204;28;20273;-57
2023/09/09 03:20:20;;;;;;;12.90;6.80;;;17.50;99.90;;;;;;5014663;28;20646;-56
2023/09/09 03:22:52;;;;;;;8.25;6.40;;;17.50;99.90;;;;;;5014864;28;20294;-52
2023/09/09 03:25:19;;;;;;;7.15;6.45;;;17.50;99.90;;;;;;5006538;28;20203;-52
2023/09/09 03:27:47;;;;;;;7.32;6.63;;;17.40;99.90;;;;;;5015124;28;20262;-51
2023/09/09 03:30:15;;;;;;;9.07;7.00;;;17.40;99.90;;;;;;5014537;28;20666;-51
2023/09/09 03:32:43;;;;;;;9.27;6.88;;;17.40;99.90;;;;;;5014478;28;20207;-52
2023/09/09 03:35:11;;;;;;;7.00;6.20;;;17.30;99.90;;;;;;5014280;28;20214;-52
2023/09/09 03:37:39;;;;;;;8.07;6.95;;;17.30;99.90;;;;;;5014553;28;20268;-52
2023/09/09 03:40:09;;;;;;;9.45;6.68;;;17.30;99.90;;;;;;5014562;28;20207;-52
2023/09/09 03:42:38;;;;;;;9.32;6.57;;;17.30;99.90;;;;;;5014765;28;20290;-52
2023/09/09 03:45:07;;;;;;;8.93;7.00;;;17.30;99.90;;;;;;5014179;28;20202;-56
2023/09/09 03:47:35;;;;;;;10.07;6.78;;;17.30;99.90;;;;;;5014265;28;20653;-52
2023/09/09 03:50:04;;;;;;;7.68;6.55;;;17.30;99.90;;;;;;5013960;28;20844;-52
2023/09/09 03:52:32;;;;;;;7.95;6.72;;;17.30;99.90;;;;;;5014578;28;20249;-52
2023/09/09 03:55:00;;;;;;;7.18;6.32;;;17.30;99.90;;;;;;5013999;28;20210;-51
2023/09/09 03:57:29;;;;;;;11.93;6.82;;;17.20;99.90;;;;;;5013786;28;20255;-52
2023/09/09 03:59:57;;;;;;;8.57;6.43;;;17.20;99.90;;;;;;5013833;28;20207;-54
2023/09/09 04:02:25;;;;;;;7.20;6.60;;;17.20;99.90;;;;;;5014008;28;20230;-53
2023/09/09 04:04:52;;;;;;;7.32;6.63;;;17.20;99.90;;;;;;5013844;28;20306;-55
2023/09/09 04:07:20;;;;;;;7.63;6.57;;;17.20;99.90;;;;;;5014038;28;20309;-51
2023/09/09 04:09:48;;;;;;;6.90;6.30;;;17.20;99.90;;;;;;5013973;28;20241;-52
2023/09/09 04:12:16;;;;;;;7.60;6.60;;;17.20;99.90;;;;;;5013960;28;20285;-52
2023/09/09 04:14:45;;;;;;;9.80;7.35;;;17.20;99.90;;;;;;5013735;28;20290;-54
2023/09/09 04:17:13;;;;;;;6.72;6.10;;;17.10;99.90;;;;;;5012907;28;20263;-54
2023/09/09 04:19:41;;;;;;;6.95;6.30;;;17.10;99.90;;;;;;5013807;28;20237;-52
2023/09/09 04:22:09;;;;;;;9.65;6.80;;;17.10;99.90;;;;;;5013887;28;20202;-54
2023/09/09 04:24:37;;;;;;;10.15;6.57;;;17.00;99.90;;;;;;5013652;28;20235;-55
2023/09/09 04:27:05;;;;;;;7.45;6.72;;;17.00;99.90;;;;;;5013394;28;20237;-54
2023/09/09 04:29:33;;;;;;;9.60;7.25;;;17.00;99.90;;;;;;5013319;28;20727;-52
2023/09/09 04:32:03;;;;;;;8.63;6.95;;;16.90;99.90;;;;;;5013683;28;20239;-54
2023/09/09 04:34:31;;;;;;;9.27;6.22;;;16.90;99.90;;;;;;5013551;28;20641;-52
2023/09/09 04:36:59;;;;;;;8.80;6.15;;;16.90;99.90;;;;;;5013143;28;20767;-57
2023/09/09 04:39:27;;;;;;;6.93;6.30;;;16.90;99.90;;;;;;5013420;28;20238;-52
2023/09/09 04:41:55;;;;;;;10.98;7.30;;;17.00;99.90;;;;;;5013405;28;20234;-52
2023/09/09 04:44:23;;;;;;;14.02;7.38;;;17.00;99.90;;;;;;5013111;28;20682;-52
2023/09/09 04:46:51;;;;;;;9.23;6.82;;;16.90;99.90;;;;;;5013090;28;20266;-52
2023/09/09 04:49:22;;;;;;;7.53;6.53;;;16.90;99.90;;;;;;5013241;28;20677;-53
2023/09/09 04:51:50;;;;;;;8.07;6.90;;;16.90;99.90;;;;;;5013321;28;20223;-53
2023/09/09 04:54:18;;;;;;;7.13;6.43;;;16.80;99.90;;;;;;5012948;28;20253;-56
2023/09/09 04:56:46;;;;;;;9.57;7.78;;;16.80;99.90;;;;;;5012876;28;21344;-52
2023/09/09 04:59:14;;;;;;;8.05;6.72;;;16.80;99.90;;;;;;5012995;28;20210;-53
2023/09/09 05:01:42;;;;;;;8.93;6.18;;;16.80;99.90;;;;;;5012199;28;20199;-54
2023/09/09 05:04:10;;;;;;;7.28;6.55;;;16.80;99.90;;;;;;5013804;28;20417;-52
2023/09/09 05:06:40;;;;;;;9.52;6.90;;;16.80;99.90;;;;;;5011012;28;20281;-52
2023/09/09 05:09:08;;;;;;;7.72;6.95;;;16.80;99.90;;;;;;5011912;28;20211;-52
2023/09/09 05:11:37;;;;;;;9.20;6.47;;;16.80;99.90;;;;;;5013106;28;20276;-56
2023/09/09 05:14:05;;;;;;;10.18;6.65;;;16.80;99.90;;;;;;5013260;28;20282;-52
2023/09/09 05:16:34;;;;;;;15.40;7.20;;;16.70;99.90;;;;;;5006877;28;21024;-52
2023/09/09 05:19:02;;;;;;;9.18;6.25;;;16.70;99.90;;;;;;5011196;28;20207;-51
2023/09/09 05:21:30;;;;;;;8.85;6.50;;;16.70;99.90;;;;;;5011524;28;20227;-51
2023/09/09 05:23:59;;;;;;;9.02;6.60;;;16.70;99.90;;;;;;5011885;28;20273;-52
2023/09/09 05:26:27;;;;;;;9.52;7.25;;;16.70;99.90;;;;;;5008102;28;20318;-52
2023/09/09 05:28:55;;;;;;;7.82;6.97;;;16.70;99.90;;;;;;5012548;28;20269;-54
2023/09/09 05:31:23;;;;;;;7.53;6.32;;;16.70;99.90;;;;;;5012219;28;20219;-55
2023/09/09 05:33:51;;;;;;;7.90;7.18;;;16.70;99.90;;;;;;5012368;28;20313;-57
2023/09/09 05:36:19;;;;;;;7.43;6.53;;;16.70;99.90;;;;;;5011909;28;20628;-55
2023/09/09 05:38:47;;;;;;;8.18;6.80;;;16.70;99.90;;;;;;5012748;28;20235;-55
2023/09/09 05:41:16;;;;;;;7.55;6.78;;;16.70;99.90;;;;;;5010731;28;20646;-56
2023/09/09 05:43:44;;;;;;;10.60;7.47;;;16.70;99.90;;;;;;5001507;28;20764;-55
2023/09/09 05:46:12;;;;;;;7.82;7.03;;;16.70;99.90;;;;;;5001623;28;20230;-54
2023/09/09 05:48:40;;;;;;;8.88;6.95;;;16.80;99.90;;;;;;5003000;28;20206;-55
2023/09/09 05:51:08;;;;;;;10.05;7.05;;;16.90;99.90;;;;;;5014331;28;20264;-55
2023/09/09 05:53:35;;;;;;;7.70;7.00;;;16.90;99.90;;;;;;5008158;28;20202;-54
2023/09/09 05:56:04;;;;;;;10.05;7.00;;;16.90;99.90;;;;;;5011878;28;20227;-55
2023/09/09 05:58:35;;;;;;;8.55;7.60;;;16.90;99.90;;;;;;5012374;28;20302;-54
2023/09/09 06:01:03;;;;;;;11.20;7.40;;;17.00;99.90;;;;;;5011854;28;20292;-58
2023/09/09 06:03:31;;;;;;;11.00;7.82;;;17.00;99.90;;;;;;5011740;28;20213;-58
2023/09/09 06:05:59;;;;;;;13.15;8.10;;;17.10;99.90;;;;;;5011727;28;20227;-59
2023/09/09 06:08:27;;;;;;;12.82;8.20;;;17.10;99.90;;;;;;5005893;28;20210;-58
2023/09/09 06:10:55;;;;;;;9.15;7.63;;;17.20;99.90;;;;;;5014277;28;20304;-58
2023/09/09 06:13:23;;;;;;;9.50;7.05;;;17.20;99.90;;;;;;5012601;28;20302;-59
2023/09/09 06:15:52;;;;;;;13.02;8.35;;;17.30;99.90;;;;;;5011281;28;20290;-58
2023/09/09 06:18:20;;;;;;;10.02;8.27;;;17.30;99.90;;;;;;5012744;28;20696;-58
2023/09/09 06:20:48;;;;;;;9.32;7.50;;;17.40;99.90;;;;;;5011783;28;20238;-59
2023/09/09 06:23:16;;;;;;;11.00;8.10;;;17.40;99.90;;;;;;5011951;28;20253;-59
2023/09/09 06:25:44;;;;;;;10.25;9.18;;;17.50;99.90;;;;;;5011403;28;20207;-59
2023/09/09 06:28:12;;;;;;;11.40;8.70;;;17.50;99.90;;;;;;5012030;28;20356;-59
2023/09/09 06:30:42;;;;;;;11.07;9.88;;;17.60;99.90;;;;;;5012037;28;20207;-58
2023/09/09 06:33:12;;;;;;;12.90;9.20;;;17.70;99.90;;;;;;5011593;28;20233;-58
2023/09/09 06:35:48;;;;;;;13.23;9.88;;;17.70;99.90;;;;;;5010180;28;20292;-58
2023/09/09 06:38:16;;;;;;;10.73;8.95;;;17.80;99.90;;;;;;5011549;28;20304;-58
2023/09/09 06:40:45;;;;;;;11.02;9.90;;;17.90;99.90;;;;;;5013718;28;20245;-58
2023/09/09 06:43:13;;;;;;;17.33;10.88;;;17.90;99.90;;;;;;5015423;28;20199;-58
2023/09/09 06:45:41;;;;;;;13.63;10.25;;;18.00;99.90;;;;;;5014155;28;20246;-58
2023/09/09 06:48:10;;;;;;;11.25;10.10;;;18.00;99.90;;;;;;5014676;28;20210;-58
2023/09/09 06:50:39;;;;;;;11.02;9.80;;;18.10;99.90;;;;;;5014421;28;20305;-58
2023/09/09 06:53:07;;;;;;;16.48;10.48;;;18.20;99.90;;;;;;5014334;28;20227;-58
2023/09/09 06:55:35;;;;;;;12.50;10.80;;;18.20;99.90;;;;;;5013926;28;20206;-58
2023/09/09 06:58:04;;;;;;;11.60;10.48;;;18.30;99.90;;;;;;5014850;28;20291;-59
2023/09/09 07:00:32;;;;;;;12.82;11.50;;;18.40;99.90;;;;;;5015278;28;20273;-58
2023/09/09 07:03:00;;;;;;;15.82;11.10;;;18.50;99.90;;;;;;5015249;28;20238;-57
2023/09/09 07:05:28;;;;;;;12.60;10.65;;;18.50;99.90;;;;;;5014573;28;20652;-58
2023/09/09 07:07:57;;;;;;;14.35;9.85;;;18.60;99.90;;;;;;5014907;28;20227;-59
2023/09/09 07:10:25;;;;;;;14.20;9.77;;;18.70;99.90;;;;;;5012904;28;20210;-59
2023/09/09 07:12:52;;;;;;;10.93;9.93;;;18.80;99.90;;;;;;5015141;28;20318;-57
2023/09/09 07:15:20;;;;;;;18.42;10.15;;;18.90;99.90;;;;;;5014663;28;20293;-58
2023/09/09 07:17:48;;;;;;;12.60;9.57;;;19.00;99.90;;;;;;5014987;28;20222;-59
2023/09/09 07:20:17;;;;;;;9.77;8.77;;;19.00;99.90;;;;;;5014527;28;20207;-59
2023/09/09 07:22:44;;;;;;;11.75;9.32;;;19.10;99.90;;;;;;5015204;28;20284;-58
2023/09/09 07:25:14;;;;;;;13.88;8.82;;;19.20;99.90;;;;;;5014308;28;20211;-58
2023/09/09 07:27:42;;;;;;;16.55;9.25;;;19.30;99.90;;;;;;5014692;28;20649;-59
2023/09/09 07:30:10;;;;;;;14.20;7.60;;;19.40;99.90;;;;;;5014257;28;20206;-58
2023/09/09 07:32:38;;;;;;;8.43;7.57;;;19.40;99.90;;;;;;5013105;28;20222;-59
2023/09/09 07:35:07;;;;;;;8.48;7.78;;;19.50;99.90;;;;;;5014790;28;20207;-58
2023/09/09 07:37:35;;;;;;;7.82;7.05;;;19.60;99.90;;;;;;5006747;28;20226;-58
2023/09/09 07:40:04;;;;;;;8.15;7.38;;;19.70;99.90;;;;;;5014479;28;20209;-59
2023/09/09 07:42:33;;;;;;;10.27;7.70;;;19.80;99.90;;;;;;5014417;28;20687;-58
2023/09/09 07:45:01;;;;;;;9.75;7.25;;;19.90;99.90;;;;;;5014239;28;20293;-58
2023/09/09 07:47:29;;;;;;;8.85;7.72;;;19.90;99.90;;;;;;5013990;28;20235;-59
2023/09/09 07:49:57;;;;;;;8.13;7.32;;;20.00;99.90;;;;;;5014420;28;20673;-59
2023/09/09 07:52:25;;;;;;;8.95;6.38;;;20.10;99.90;;;;;;5013235;28;20207;-58
2023/09/09 07:54:53;;;;;;;7.70;6.90;;;20.20;99.90;;;;;;5014090;28;20217;-55
2023/09/09 07:57:20;;;;;;;9.48;6.45;;;20.30;99.90;;;;;;5013867;28;20257;-56
2023/09/09 07:59:50;;;;;;;9.50;6.60;;;20.40;99.90;;;;;;5015491;28;20214;-55
2023/09/09 08:02:17;;;;;;;9.35;6.97;;;20.50;99.90;;;;;;5014290;28;20285;-56
2023/09/09 08:04:45;;;;;;;10.68;6.93;;;20.60;99.90;;;;;;5013997;28;20288;-56
2023/09/09 08:07:13;;;;;;;9.60;6.75;;;20.70;99.90;;;;;;5013774;28;20304;-57
2023/09/09 08:09:42;;;;;;;7.43;6.60;;;20.80;99.90;;;;;;5013640;28;20588;-56
2023/09/09 08:12:09;;;;;;;11.68;6.95;;;20.80;99.90;;;;;;5014124;28;20269;-58
2023/09/09 08:14:37;;;;;;;7.75;6.70;;;20.90;99.90;;;;;;5013462;28;20281;-57
2023/09/09 08:17:07;;;;;;;8.90;7.20;;;21.00;99.90;;;;;;5013714;28;20312;-56
2023/09/09 08:19:35;;;;;;;10.75;6.82;;;21.20;99.90;;;;;;5013690;28;20647;-56
2023/09/09 08:22:03;;;;;;;8.00;6.82;;;21.20;99.90;;;;;;5013922;28;20211;-57
2023/09/09 08:24:31;;;;;;;8.68;6.57;;;21.30;99.90;;;;;;5013289;28;20831;-57
2023/09/09 08:26:59;;;;;;;11.00;6.88;;;21.40;99.90;;;;;;5013261;28;20310;-57
2023/09/09 08:29:27;;;;;;;8.52;6.70;;;21.60;99.90;;;;;;5013719;28;20214;-57
2023/09/09 08:31:55;;;;;;;7.15;6.55;;;21.70;99.90;;;;;;5013724;28;20207;-57
2023/09/09 08:34:24;;;;;;;7.55;6.40;;;21.80;99.90;;;;;;5011846;28;20318;-57
2023/09/09 08:36:52;;;;;;;8.15;6.40;;;21.90;99.90;;;;;;5013014;28;20262;-56
2023/09/09 08:39:21;;;;;;;7.47;6.80;;;22.00;99.90;;;;;;5012910;28;20297;-56
2023/09/09 08:41:53;;;;;;;10.13;6.82;;;22.10;99.90;;;;;;5013004;28;20210;-57
2023/09/09 08:44:29;;;;;;;6.80;6.07;;;22.20;99.90;;;;;;5012218;28;20294;-57
2023/09/09 08:46:57;;;;;;;12.43;6.78;;;22.40;99.90;;;;;;5012872;28;20227;-57
2023/09/09 08:49:27;;;;;;;8.38;7.03;;;22.50;99.90;;;;;;5013042;28;20616;-57
2023/09/09 08:51:56;;;;;;;8.40;6.60;;;22.60;99.90;;;;;;5012643;28;20415;-57
2023/09/09 08:54:24;;;;;;;10.23;6.75;;;22.80;99.90;;;;;;5012153;28;20313;-58
2023/09/09 08:56:52;;;;;;;7.55;6.25;;;22.90;99.90;;;;;;5012858;28;20317;-56
2023/09/09 08:59:20;;;;;;;8.18;6.18;;;23.00;99.90;;;;;;5011492;28;20787;-56
2023/09/09 09:01:48;;;;;;;7.80;6.63;;;23.10;99.90;;;;;;5012901;28;20234;-57
2023/09/09 09:04:16;;;;;;;7.18;6.57;;;23.30;99.90;;;;;;5012611;28;20217;-56
2023/09/09 09:06:47;;;;;;;7.65;6.78;;;23.50;99.90;;;;;;5012331;28;20226;-57
2023/09/09 09:09:15;;;;;;;8.45;6.38;;;23.70;99.90;;;;;;5013119;28;20242;-57
2023/09/09 09:11:44;;;;;;;6.57;5.90;;;23.80;99.90;;;;;;5012833;28;20269;-57
2023/09/09 09:14:12;;;;;;;9.57;6.53;;;24.00;99.90;;;;;;5012652;28;20645;-55
2023/09/09 09:16:40;;;;;;;7.30;6.70;;;24.10;99.90;;;;;;5012161;28;20277;-58
2023/09/09 09:19:15;;;;;;;7.22;6.40;;;24.30;99.90;;;;;;5012670;28;20215;-58
2023/09/09 09:21:43;;;;;;;8.60;6.20;;;24.40;99.90;;;;;;5012683;28;20206;-57
2023/09/09 09:24:13;;;;;;;11.85;7.00;;;24.70;99.90;;;;;;5012827;28;20199;-58
2023/09/09 09:26:41;;;;;;;7.65;6.85;;;24.90;99.90;;;;;;5011918;28;20226;-59
2023/09/09 09:29:09;;;;;;;16.25;6.88;;;25.10;99.90;;;;;;5012566;28;20242;-58
2023/09/09 09:31:37;;;;;;;9.50;6.72;;;25.40;99.90;;;;;;5012102;28;20268;-58
2023/09/09 09:34:05;;;;;;;7.45;6.45;;;25.50;99.90;;;;;;5012667;28;20258;-58
2023/09/09 09:36:33;;;;;;;6.53;5.88;;;25.60;99.90;;;;;;5012005;28;20309;-58
2023/09/09 09:39:01;;;;;;;8.45;6.55;;;25.80;99.90;;;;;;5012424;28;20333;-58
2023/09/09 09:41:30;;;;;;;7.95;6.13;;;26.00;99.90;;;;;;5012138;28;20299;-59
2023/09/09 09:43:58;;;;;;;7.53;6.30;;;26.20;99.90;;;;;;5012300;28;20234;-58
2023/09/09 09:46:26;;;;;;;7.03;6.32;;;26.40;99.90;;;;;;5011631;28;20245;-58
2023/09/09 09:48:54;;;;;;;6.80;6.20;;;26.70;99.90;;;;;;5011755;28;20210;-57
2023/09/09 09:51:22;;;;;;;6.68;5.95;;;26.80;99.90;;;;;;5011814;28;20206;-57
2023/09/09 09:53:53;;;;;;;8.27;6.45;;;27.00;99.90;;;;;;5012003;28;20218;-58
2023/09/09 09:56:21;;;;;;;6.88;6.15;;;27.30;99.90;;;;;;5011412;28;20222;-58
2023/09/09 09:58:51;;;;;;;7.35;6.53;;;27.50;99.90;;;;;;5012089;28;20215;-57
2023/09/09 10:01:19;;;;;;;8.77;6.38;;;27.70;99.90;;;;;;5008869;28;20238;-58
2023/09/09 10:03:48;;;;;;;9.68;6.03;;;27.80;99.90;;;;;;5010316;28;20218;-60
2023/09/09 10:06:18;;;;;;;7.43;6.80;;;28.10;99.90;;;;;;5010320;28;20313;-60
2023/09/09 10:08:47;;;;;;;7.18;6.55;;;28.40;99.90;;;;;;5010704;28;20580;-60
2023/09/09 10:11:16;;;;;;;8.98;6.80;;;28.80;99.90;;;;;;5010297;28;20622;-60
2023/09/09 10:13:44;;;;;;;8.23;6.88;;;29.00;99.90;;;;;;5011017;28;20305;-60
2023/09/09 10:16:15;;;;;;;7.88;7.00;;;29.00;99.90;;;;;;5010981;28;20222;-60
2023/09/09 10:18:43;;;;;;;6.78;6.28;;;29.30;99.90;;;;;;5012060;28;20203;-61
2023/09/09 10:21:10;;;;;;;7.10;6.38;;;29.70;99.90;;;;;;5011735;28;20237;-60
2023/09/09 10:23:38;;;;;;;8.20;6.60;;;29.70;99.90;;;;;;5011190;28;20711;-61
2023/09/09 10:26:08;;;;;;;7.53;6.63;;;29.90;99.90;;;;;;5010906;28;20222;-60
2023/09/09 10:28:36;;;;;;;7.60;6.95;;;30.30;99.90;;;;;;5011953;28;20213;-60
2023/09/09 10:31:04;;;;;;;8.27;7.47;;;30.60;99.90;;;;;;5011803;28;20285;-60
2023/09/09 10:33:33;;;;;;;7.28;6.53;;;30.90;99.90;;;;;;5011668;28;20667;-60
2023/09/09 10:36:01;;;;;;;13.43;6.63;;;31.00;99.90;;;;;;5009431;28;20238;-60
2023/09/09 10:38:30;;;;;;;12.80;7.15;;;31.10;99.90;;;;;;5011425;28;20750;-60
2023/09/09 10:40:57;;;;;;;7.63;6.93;;;31.30;99.90;;;;;;5010824;28;20233;-60
2023/09/09 10:43:25;;;;;;;9.48;7.40;;;31.60;99.90;;;;;;5006991;28;20794;-61
2023/09/09 10:45:53;;;;;;;7.68;6.88;;;31.70;99.90;;;;;;5008625;28;20278;-59
2023/09/09 10:48:21;;;;;;;8.98;7.20;;;31.90;99.90;;;;;;5011495;28;20225;-60
2023/09/09 10:50:51;;;;;;;8.35;7.53;;;32.00;99.90;;;;;;5009632;28;20210;-59
2023/09/09 10:53:22;;;;;;;8.40;7.00;;;32.10;99.90;;;;;;5011435;28;20206;-59
2023/09/09 10:55:52;;;;;;;8.00;7.38;;;32.40;99.90;;;;;;5010991;28;20272;-59
2023/09/09 10:58:22;;;;;;;11.10;7.20;;;32.40;99.90;;;;;;5011294;28;20226;-59
2023/09/09 11:00:50;;;;;;;7.47;6.78;;;32.70;99.90;;;;;;5011455;28;20289;-59
2023/09/09 11:03:21;;;;;;;7.38;6.65;;;33.00;99.90;;;;;;5011382;28;20293;-59
2023/09/09 11:06:02;;;;;;;10.73;6.72;;;33.30;99.90;;;;;;5011037;28;20230;-59
2023/09/09 11:08:36;;;;;;;7.40;6.60;;;33.50;99.90;;;;;;5011271;28;20755;-59
2023/09/09 11:11:12;;;;;;;7.82;6.85;;;33.70;99.90;;;;;;5010141;28;20626;-59
2023/09/09 11:13:41;;;;;;;11.75;6.50;;;33.50;99.90;;;;;;5011416;28;20257;-59
2023/09/09 11:16:23;;;;;;;7.00;6.30;;;33.50;99.90;;;;;;5010921;28;20265;-59
2023/09/09 11:18:52;;;;;;;12.65;6.75;;;33.70;99.90;;;;;;5011584;28;20207;-59
2023/09/09 11:21:23;;;;;;;8.70;6.72;;;34.10;99.90;;;;;;5011280;28;20664;-59
2023/09/09 11:23:51;;;;;;;7.82;6.25;;;34.40;99.90;;;;;;5011296;28;20203;-60
2023/09/09 11:26:19;;;;;;;7.10;6.35;;;34.50;99.90;;;;;;5012439;28;20309;-59
2023/09/09 11:28:48;;;;;;;6.22;5.82;;;34.50;99.90;;;;;;5015155;28;20230;-60
2023/09/09 11:31:16;;;;;;;6.90;5.63;;;34.60;99.90;;;;;;5014919;28;20206;-59
2023/09/09 11:33:44;;;;;;;9.63;6.03;;;34.80;99.90;;;;;;5014859;28;20198;-59
2023/09/09 11:36:15;;;;;;;7.78;6.28;;;35.00;99.90;;;;;;5014149;28;20227;-60
2023/09/09 11:38:44;;;;;;;14.18;6.07;;;35.10;99.90;;;;;;5033682;22;20250;-63
2023/09/09 11:41:19;;;;;;;6.43;5.88;;;35.10;99.90;;;;;;5014415;28;20238;-62
2023/09/09 11:43:57;;;;;;;6.93;6.25;;;35.30;99.90;;;;;;5014749;28;20293;-63
2023/09/09 11:46:25;;;;;;;13.95;6.45;;;35.50;99.90;;;;;;5014048;28;20227;-63
2023/09/09 11:48:53;;;;;;;7.25;6.18;;;35.40;99.90;;;;;;5014452;28;20226;-63
2023/09/09 11:51:21;;;;;;;7.18;6.22;;;35.30;99.90;;;;;;5014461;28;20234;-62
2023/09/09 11:53:50;;;;;;;7.93;6.15;;;35.50;99.90;;;;;;5014286;28;20675;-60
2023/09/09 11:56:19;;;;;;;7.82;5.90;;;35.60;99.90;;;;;;5013872;28;20262;-60
2023/09/09 11:58:47;;;;;;;7.90;5.90;;;35.90;99.90;;;;;;5014188;28;20317;-60
2023/09/09 12:01:15;;;;;;;5.82;5.50;;;36.00;99.90;;;;;;5013918;28;20747;-60
2023/09/09 12:03:43;;;;;;;6.53;5.88;;;36.10;98.90;;;;;;5014013;28;20245;-60
2023/09/09 12:06:11;;;;;;;8.20;5.53;;;36.00;99.60;;;;;;5013791;28;20219;-60
2023/09/09 12:08:39;;;;;;;9.38;5.35;;;36.10;99.70;;;;;;5014135;28;20234;-60
2023/09/09 12:11:09;;;;;;;5.55;5.13;;;36.20;98.30;;;;;;5013870;28;20245;-61
2023/09/09 12:13:37;;;;;;;7.00;5.68;;;36.30;97.90;;;;;;5014042;28;20264;-60
2023/09/09 12:16:06;;;;;;;7.20;5.40;;;36.20;96.60;;;;;;5013313;28;20229;-60
2023/09/09 12:18:34;;;;;;;7.32;6.40;;;36.40;97.80;;;;;;5013927;28;20261;-60
2023/09/09 12:21:02;;;;;;;8.10;5.68;;;36.70;98.30;;;;;;5013575;28;20202;-61
2023/09/09 12:23:30;;;;;;;8.68;6.13;;;37.00;98.40;;;;;;5013870;28;20206;-60
2023/09/09 12:26:09;;;;;;;7.85;5.50;;;37.20;97.70;;;;;;5013352;28;20202;-60
2023/09/09 12:28:37;;;;;;;7.28;5.03;;;37.30;98.00;;;;;;5013479;28;20703;-60
2023/09/09 12:31:05;;;;;;;6.28;5.57;;;37.20;92.70;;;;;;5013390;28;20653;-60
2023/09/09 12:33:40;;;;;;;5.75;5.20;;;37.40;92.90;;;;;;5013642;28;20207;-60
2023/09/09 12:36:15;;;;;;;7.53;5.43;;;37.30;92.80;;;;;;5012966;28;20254;-60
2023/09/09 12:38:44;;;;;;;6.05;5.32;;;37.20;93.10;;;;;;5012653;28;20234;-60
2023/09/09 12:41:17;;;;;;;6.13;5.38;;;37.30;93.80;;;;;;5013238;28;20298;-61
2023/09/09 12:43:45;;;;;;;5.38;4.88;;;37.30;92.30;;;;;;5013530;28;20207;-60
2023/09/09 12:46:13;;;;;;;5.43;5.13;;;37.20;92.80;;;;;;5012999;28;20581;-60
2023/09/09 12:48:54;;;;;;;6.75;5.43;;;37.00;90.60;;;;;;5013330;28;20230;-60
2023/09/09 12:51:22;;;;;;;5.88;5.35;;;37.00;92.30;;;;;;5013066;28;20683;-60